sensor_id;sensor_type;location;lat;lon;timestamp;P1;durP1;ratioP1;P2;durP2;ratioP2
20230;SDS011;10274;49.022;9.338;2022-08-25T00:01:51;1.60;;;1.43;;
20230;SDS011;10274;49.022;9.338;2022-08-25T00:04:19;1.50;;;1.37;;
20230;SDS011;10274;49.022;9.338;2022-08-25T00:06:46;1.50;;;1.40;;
20230;SDS011;10274;49.022;9.338;2022-08-25T00:09:14;2.83;;;1.47;;
20230;SDS011;10274;49.022;9.338;2022-08-25T00:11:43;1.43;;;1.33;;
20230;SDS011;10274;49.022;9.338;2022-08-25T00:14:12;1.30;;;1.20;;
20230;SDS011;10274;49.022;9.338;2022-08-25T00:16:44;1.33;;;1.23;;
20230;SDS011;10274;49.022;9.338;2022-08-25T00:19:12;1.63;;;1.53;;
20230;SDS011;10274;49.022;9.338;2022-08-25T00:21:41;1.47;;;1.33;;
20230;SDS011;10274;49.022;9.338;2022-08-25T00:24:12;1.53;;;1.40;;
20230;SDS011;10274;49.022;9.338;2022-08-25T00:26:42;1.57;;;1.47;;
20230;SDS011;10274;49.022;9.338;2022-08-25T00:29:12;1.90;;;1.50;;
20230;SDS011;10274;49.022;9.338;2022-08-25T00:31:39;2.03;;;1.63;;
20230;SDS011;10274;49.022;9.338;2022-08-25T00:34:07;1.40;;;1.10;;
20230;SDS011;10274;49.022;9.338;2022-08-25T00:36:36;2.07;;;1.50;;
20230;SDS011;10274;49.022;9.338;2022-08-25T00:39:03;1.40;;;1.30;;
20230;SDS011;10274;49.022;9.338;2022-08-25T00:41:31;2.20;;;1.40;;
20230;SDS011;10274;49.022;9.338;2022-08-25T00:43:59;1.90;;;1.53;;
20230;SDS011;10274;49.022;9.338;2022-08-25T00:46:31;1.33;;;1.20;;
20230;SDS011;10274;49.022;9.338;2022-08-25T00:49:01;1.70;;;1.60;;
20230;SDS011;10274;49.022;9.338;2022-08-25T00:51:31;1.67;;;1.30;;
20230;SDS011;10274;49.022;9.338;2022-08-25T00:54:01;1.70;;;1.33;;
20230;SDS011;10274;49.022;9.338;2022-08-25T00:56:29;1.73;;;1.60;;
20230;SDS011;10274;49.022;9.338;2022-08-25T00:58:56;3.27;;;1.67;;
20230;SDS011;10274;49.022;9.338;2022-08-25T01:01:24;2.50;;;1.47;;
20230;SDS011;10274;49.022;9.338;2022-08-25T01:03:52;2.03;;;1.37;;
20230;SDS011;10274;49.022;9.338;2022-08-25T01:06:19;2.00;;;1.53;;
20230;SDS011;10274;49.022;9.338;2022-08-25T01:08:46;1.73;;;1.60;;
20230;SDS011;10274;49.022;9.338;2022-08-25T01:11:13;1.80;;;1.40;;
20230;SDS011;10274;49.022;9.338;2022-08-25T01:13:40;1.40;;;1.30;;
20230;SDS011;10274;49.022;9.338;2022-08-25T01:16:10;2.40;;;1.77;;
20230;SDS011;10274;49.022;9.338;2022-08-25T01:18:48;1.90;;;1.37;;
20230;SDS011;10274;49.022;9.338;2022-08-25T01:21:19;1.70;;;1.60;;
20230;SDS011;10274;49.022;9.338;2022-08-25T01:23:48;1.57;;;1.47;;
20230;SDS011;10274;49.022;9.338;2022-08-25T01:26:17;1.47;;;1.37;;
20230;SDS011;10274;49.022;9.338;2022-08-25T01:28:46;2.13;;;1.63;;
20230;SDS011;10274;49.022;9.338;2022-08-25T01:31:34;1.67;;;1.50;;
20230;SDS011;10274;49.022;9.338;2022-08-25T01:34:02;2.70;;;1.50;;
20230;SDS011;10274;49.022;9.338;2022-08-25T01:36:31;1.67;;;1.57;;
20230;SDS011;10274;49.022;9.338;2022-08-25T01:38:59;2.10;;;1.90;;
20230;SDS011;10274;49.022;9.338;2022-08-25T01:41:29;2.03;;;1.80;;
20230;SDS011;10274;49.022;9.338;2022-08-25T01:44:02;2.07;;;1.77;;
20230;SDS011;10274;49.022;9.338;2022-08-25T01:46:30;2.00;;;1.80;;
20230;SDS011;10274;49.022;9.338;2022-08-25T01:48:57;2.00;;;1.67;;
20230;SDS011;10274;49.022;9.338;2022-08-25T01:51:25;1.47;;;1.33;;
20230;SDS011;10274;49.022;9.338;2022-08-25T01:53:56;1.77;;;1.40;;
20230;SDS011;10274;49.022;9.338;2022-08-25T01:56:22;1.70;;;1.60;;
20230;SDS011;10274;49.022;9.338;2022-08-25T01:58:49;1.80;;;1.60;;
20230;SDS011;10274;49.022;9.338;2022-08-25T02:01:17;3.13;;;1.97;;
20230;SDS011;10274;49.022;9.338;2022-08-25T02:03:48;1.83;;;1.60;;
20230;SDS011;10274;49.022;9.338;2022-08-25T02:06:19;2.57;;;1.80;;
20230;SDS011;10274;49.022;9.338;2022-08-25T02:08:49;1.40;;;1.30;;
20230;SDS011;10274;49.022;9.338;2022-08-25T02:11:18;2.17;;;1.80;;
20230;SDS011;10274;49.022;9.338;2022-08-25T02:13:46;2.50;;;1.97;;
20230;SDS011;10274;49.022;9.338;2022-08-25T02:16:14;2.30;;;1.57;;
20230;SDS011;10274;49.022;9.338;2022-08-25T02:18:44;2.00;;;1.77;;
20230;SDS011;10274;49.022;9.338;2022-08-25T02:21:11;2.00;;;1.80;;
20230;SDS011;10274;49.022;9.338;2022-08-25T02:23:38;2.57;;;1.67;;
20230;SDS011;10274;49.022;9.338;2022-08-25T02:26:06;1.80;;;1.70;;
20230;SDS011;10274;49.022;9.338;2022-08-25T02:28:34;2.00;;;1.77;;
20230;SDS011;10274;49.022;9.338;2022-08-25T02:31:01;2.67;;;1.43;;
20230;SDS011;10274;49.022;9.338;2022-08-25T02:33:28;2.07;;;1.77;;
20230;SDS011;10274;49.022;9.338;2022-08-25T02:35:56;2.47;;;2.13;;
20230;SDS011;10274;49.022;9.338;2022-08-25T02:38:23;2.00;;;1.77;;
20230;SDS011;10274;49.022;9.338;2022-08-25T02:40:52;2.47;;;2.00;;
20230;SDS011;10274;49.022;9.338;2022-08-25T02:43:18;2.93;;;2.23;;
20230;SDS011;10274;49.022;9.338;2022-08-25T02:45:47;1.93;;;1.80;;
20230;SDS011;10274;49.022;9.338;2022-08-25T02:48:13;2.67;;;2.07;;
20230;SDS011;10274;49.022;9.338;2022-08-25T02:50:40;2.30;;;1.73;;
20230;SDS011;10274;49.022;9.338;2022-08-25T02:53:11;1.77;;;1.53;;
20230;SDS011;10274;49.022;9.338;2022-08-25T02:55:39;1.63;;;1.50;;
20230;SDS011;10274;49.022;9.338;2022-08-25T02:58:05;2.07;;;1.67;;
20230;SDS011;10274;49.022;9.338;2022-08-25T03:00:33;2.20;;;2.00;;
20230;SDS011;10274;49.022;9.338;2022-08-25T03:03:01;2.10;;;1.90;;
20230;SDS011;10274;49.022;9.338;2022-08-25T03:05:28;2.77;;;1.90;;
20230;SDS011;10274;49.022;9.338;2022-08-25T03:07:54;2.27;;;1.57;;
20230;SDS011;10274;49.022;9.338;2022-08-25T03:10:21;1.97;;;1.73;;
20230;SDS011;10274;49.022;9.338;2022-08-25T03:12:48;2.10;;;1.90;;
20230;SDS011;10274;49.022;9.338;2022-08-25T03:15:15;1.93;;;1.77;;
20230;SDS011;10274;49.022;9.338;2022-08-25T03:17:42;2.57;;;1.90;;
20230;SDS011;10274;49.022;9.338;2022-08-25T03:20:11;1.57;;;1.47;;
20230;SDS011;10274;49.022;9.338;2022-08-25T03:22:39;2.20;;;2.00;;
20230;SDS011;10274;49.022;9.338;2022-08-25T03:25:06;2.90;;;1.83;;
20230;SDS011;10274;49.022;9.338;2022-08-25T03:27:51;2.43;;;2.00;;
20230;SDS011;10274;49.022;9.338;2022-08-25T03:30:19;2.10;;;1.90;;
20230;SDS011;10274;49.022;9.338;2022-08-25T03:32:46;1.90;;;1.80;;
20230;SDS011;10274;49.022;9.338;2022-08-25T03:35:14;2.63;;;2.00;;
20230;SDS011;10274;49.022;9.338;2022-08-25T03:37:41;3.07;;;2.40;;
20230;SDS011;10274;49.022;9.338;2022-08-25T03:40:08;2.10;;;1.63;;
20230;SDS011;10274;49.022;9.338;2022-08-25T03:42:39;2.87;;;2.30;;
20230;SDS011;10274;49.022;9.338;2022-08-25T03:45:07;2.10;;;1.90;;
20230;SDS011;10274;49.022;9.338;2022-08-25T03:47:35;3.23;;;2.37;;
20230;SDS011;10274;49.022;9.338;2022-08-25T03:50:02;1.83;;;1.70;;
20230;SDS011;10274;49.022;9.338;2022-08-25T03:52:31;3.33;;;2.50;;
20230;SDS011;10274;49.022;9.338;2022-08-25T03:54:58;2.20;;;1.90;;
20230;SDS011;10274;49.022;9.338;2022-08-25T03:57:24;2.47;;;1.93;;
20230;SDS011;10274;49.022;9.338;2022-08-25T03:59:51;3.93;;;2.30;;
20230;SDS011;10274;49.022;9.338;2022-08-25T04:02:18;2.40;;;2.20;;
20230;SDS011;10274;49.022;9.338;2022-08-25T04:04:45;2.33;;;1.87;;
20230;SDS011;10274;49.022;9.338;2022-08-25T04:07:12;2.27;;;2.03;;
20230;SDS011;10274;49.022;9.338;2022-08-25T04:09:40;1.73;;;1.50;;
20230;SDS011;10274;49.022;9.338;2022-08-25T04:12:07;3.77;;;2.37;;
20230;SDS011;10274;49.022;9.338;2022-08-25T04:14:34;2.50;;;2.30;;
20230;SDS011;10274;49.022;9.338;2022-08-25T04:17:00;3.40;;;2.33;;
20230;SDS011;10274;49.022;9.338;2022-08-25T04:19:27;4.97;;;2.20;;
20230;SDS011;10274;49.022;9.338;2022-08-25T04:21:54;2.30;;;2.10;;
20230;SDS011;10274;49.022;9.338;2022-08-25T04:24:21;2.50;;;2.00;;
20230;SDS011;10274;49.022;9.338;2022-08-25T04:26:49;2.40;;;2.00;;
20230;SDS011;10274;49.022;9.338;2022-08-25T04:29:17;2.87;;;2.30;;
20230;SDS011;10274;49.022;9.338;2022-08-25T04:31:46;2.27;;;2.07;;
20230;SDS011;10274;49.022;9.338;2022-08-25T04:34:14;1.90;;;1.73;;
20230;SDS011;10274;49.022;9.338;2022-08-25T04:36:41;2.87;;;2.30;;
20230;SDS011;10274;49.022;9.338;2022-08-25T04:39:08;2.70;;;2.17;;
20230;SDS011;10274;49.022;9.338;2022-08-25T04:41:35;2.30;;;1.93;;
20230;SDS011;10274;49.022;9.338;2022-08-25T04:44:04;3.00;;;2.23;;
20230;SDS011;10274;49.022;9.338;2022-08-25T04:46:31;2.30;;;2.07;;
20230;SDS011;10274;49.022;9.338;2022-08-25T04:48:59;2.30;;;2.10;;
20230;SDS011;10274;49.022;9.338;2022-08-25T04:51:28;2.30;;;2.10;;
20230;SDS011;10274;49.022;9.338;2022-08-25T04:53:57;2.53;;;2.20;;
20230;SDS011;10274;49.022;9.338;2022-08-25T04:56:25;2.80;;;2.30;;
20230;SDS011;10274;49.022;9.338;2022-08-25T04:58:53;2.80;;;2.37;;
20230;SDS011;10274;49.022;9.338;2022-08-25T05:01:23;2.20;;;2.00;;
20230;SDS011;10274;49.022;9.338;2022-08-25T05:03:51;2.57;;;2.23;;
20230;SDS011;10274;49.022;9.338;2022-08-25T05:06:20;2.53;;;2.27;;
20230;SDS011;10274;49.022;9.338;2022-08-25T05:08:46;2.30;;;1.80;;
20230;SDS011;10274;49.022;9.338;2022-08-25T05:11:14;2.80;;;2.17;;
20230;SDS011;10274;49.022;9.338;2022-08-25T05:13:42;3.07;;;2.43;;
20230;SDS011;10274;49.022;9.338;2022-08-25T05:16:10;2.07;;;1.87;;
20230;SDS011;10274;49.022;9.338;2022-08-25T05:18:38;2.23;;;2.00;;
20230;SDS011;10274;49.022;9.338;2022-08-25T05:21:05;3.87;;;2.80;;
20230;SDS011;10274;49.022;9.338;2022-08-25T05:23:33;2.83;;;2.50;;
20230;SDS011;10274;49.022;9.338;2022-08-25T05:26:01;2.63;;;1.80;;
20230;SDS011;10274;49.022;9.338;2022-08-25T05:28:32;2.63;;;2.37;;
20230;SDS011;10274;49.022;9.338;2022-08-25T05:31:00;3.73;;;2.57;;
20230;SDS011;10274;49.022;9.338;2022-08-25T05:33:29;2.57;;;2.37;;
20230;SDS011;10274;49.022;9.338;2022-08-25T05:35:57;3.33;;;2.97;;
20230;SDS011;10274;49.022;9.338;2022-08-25T05:38:24;2.60;;;2.30;;
20230;SDS011;10274;49.022;9.338;2022-08-25T05:40:51;2.63;;;1.90;;
20230;SDS011;10274;49.022;9.338;2022-08-25T05:43:18;2.63;;;2.10;;
20230;SDS011;10274;49.022;9.338;2022-08-25T05:45:45;2.67;;;2.40;;
20230;SDS011;10274;49.022;9.338;2022-08-25T05:48:12;2.60;;;2.30;;
20230;SDS011;10274;49.022;9.338;2022-08-25T05:50:39;3.00;;;2.50;;
20230;SDS011;10274;49.022;9.338;2022-08-25T05:53:08;2.63;;;2.33;;
20230;SDS011;10274;49.022;9.338;2022-08-25T05:55:34;2.60;;;2.40;;
20230;SDS011;10274;49.022;9.338;2022-08-25T05:58:01;4.77;;;3.33;;
20230;SDS011;10274;49.022;9.338;2022-08-25T06:00:28;3.80;;;2.83;;
20230;SDS011;10274;49.022;9.338;2022-08-25T06:02:55;3.07;;;2.47;;
20230;SDS011;10274;49.022;9.338;2022-08-25T06:05:21;2.90;;;2.20;;
20230;SDS011;10274;49.022;9.338;2022-08-25T06:07:49;2.90;;;2.60;;
20230;SDS011;10274;49.022;9.338;2022-08-25T06:10:18;2.60;;;2.17;;
20230;SDS011;10274;49.022;9.338;2022-08-25T06:12:46;3.63;;;2.27;;
20230;SDS011;10274;49.022;9.338;2022-08-25T06:15:14;2.83;;;2.13;;
20230;SDS011;10274;49.022;9.338;2022-08-25T06:17:43;3.53;;;2.30;;
20230;SDS011;10274;49.022;9.338;2022-08-25T06:20:11;2.73;;;2.03;;
20230;SDS011;10274;49.022;9.338;2022-08-25T06:22:40;2.83;;;2.20;;
20230;SDS011;10274;49.022;9.338;2022-08-25T06:25:08;3.10;;;2.37;;
20230;SDS011;10274;49.022;9.338;2022-08-25T06:27:37;3.83;;;2.63;;
20230;SDS011;10274;49.022;9.338;2022-08-25T06:30:06;4.20;;;3.70;;
20230;SDS011;10274;49.022;9.338;2022-08-25T06:32:35;2.77;;;2.43;;
20230;SDS011;10274;49.022;9.338;2022-08-25T06:35:03;4.23;;;2.83;;
20230;SDS011;10274;49.022;9.338;2022-08-25T06:37:32;2.77;;;2.50;;
20230;SDS011;10274;49.022;9.338;2022-08-25T06:39:59;2.60;;;2.27;;
20230;SDS011;10274;49.022;9.338;2022-08-25T06:42:26;3.53;;;2.97;;
20230;SDS011;10274;49.022;9.338;2022-08-25T06:44:54;3.23;;;2.53;;
20230;SDS011;10274;49.022;9.338;2022-08-25T06:47:21;3.10;;;2.57;;
20230;SDS011;10274;49.022;9.338;2022-08-25T06:49:47;3.07;;;2.40;;
20230;SDS011;10274;49.022;9.338;2022-08-25T06:52:14;2.60;;;2.40;;
20230;SDS011;10274;49.022;9.338;2022-08-25T06:54:41;2.00;;;1.70;;
20230;SDS011;10274;49.022;9.338;2022-08-25T06:57:08;3.50;;;2.53;;
20230;SDS011;10274;49.022;9.338;2022-08-25T06:59:35;3.13;;;2.57;;
20230;SDS011;10274;49.022;9.338;2022-08-25T07:02:04;2.97;;;2.23;;
20230;SDS011;10274;49.022;9.338;2022-08-25T07:04:31;2.50;;;2.27;;
20230;SDS011;10274;49.022;9.338;2022-08-25T07:06:59;3.37;;;2.47;;
20230;SDS011;10274;49.022;9.338;2022-08-25T07:09:26;2.73;;;2.47;;
20230;SDS011;10274;49.022;9.338;2022-08-25T07:11:52;3.03;;;2.43;;
20230;SDS011;10274;49.022;9.338;2022-08-25T07:14:19;3.77;;;3.30;;
20230;SDS011;10274;49.022;9.338;2022-08-25T07:16:46;3.30;;;2.43;;
20230;SDS011;10274;49.022;9.338;2022-08-25T07:19:14;3.30;;;2.83;;
20230;SDS011;10274;49.022;9.338;2022-08-25T07:21:44;2.43;;;2.23;;
20230;SDS011;10274;49.022;9.338;2022-08-25T07:24:12;3.83;;;2.60;;
20230;SDS011;10274;49.022;9.338;2022-08-25T07:26:40;2.73;;;2.53;;
20230;SDS011;10274;49.022;9.338;2022-08-25T07:29:08;3.90;;;2.53;;
20230;SDS011;10274;49.022;9.338;2022-08-25T07:31:38;3.33;;;2.40;;
20230;SDS011;10274;49.022;9.338;2022-08-25T07:34:05;2.45;;;2.10;;
20230;SDS011;10274;49.022;9.338;2022-08-25T07:36:50;2.78;;;2.10;;
20230;SDS011;10274;49.022;9.338;2022-08-25T07:39:17;2.45;;;2.20;;
20230;SDS011;10274;49.022;9.338;2022-08-25T07:41:44;2.65;;;1.90;;
20230;SDS011;10274;49.022;9.338;2022-08-25T07:44:10;2.70;;;2.10;;
20230;SDS011;10274;49.022;9.338;2022-08-25T07:46:38;2.17;;;1.98;;
20230;SDS011;10274;49.022;9.338;2022-08-25T07:49:04;1.85;;;1.65;;
20230;SDS011;10274;49.022;9.338;2022-08-25T07:51:32;2.10;;;1.85;;
20230;SDS011;10274;49.022;9.338;2022-08-25T07:54:00;2.03;;;1.90;;
20230;SDS011;10274;49.022;9.338;2022-08-25T07:56:27;1.85;;;1.75;;
20230;SDS011;10274;49.022;9.338;2022-08-25T07:58:53;2.38;;;1.98;;
20230;SDS011;10274;49.022;9.338;2022-08-25T08:01:21;2.13;;;1.92;;
20230;SDS011;10274;49.022;9.338;2022-08-25T08:03:49;1.63;;;1.52;;
20230;SDS011;10274;49.022;9.338;2022-08-25T08:06:17;2.75;;;2.10;;
20230;SDS011;10274;49.022;9.338;2022-08-25T08:08:46;2.15;;;1.95;;
20230;SDS011;10274;49.022;9.338;2022-08-25T08:11:16;2.17;;;1.90;;
20230;SDS011;10274;49.022;9.338;2022-08-25T08:13:44;1.85;;;1.70;;
20230;SDS011;10274;49.022;9.338;2022-08-25T08:16:12;1.80;;;1.70;;
20230;SDS011;10274;49.022;9.338;2022-08-25T08:18:41;1.85;;;1.75;;
20230;SDS011;10274;49.022;9.338;2022-08-25T08:21:09;1.60;;;1.50;;
20230;SDS011;10274;49.022;9.338;2022-08-25T08:23:37;2.10;;;1.75;;
20230;SDS011;10274;49.022;9.338;2022-08-25T08:26:04;1.90;;;1.60;;
20230;SDS011;10274;49.022;9.338;2022-08-25T08:28:33;2.10;;;1.90;;
20230;SDS011;10274;49.022;9.338;2022-08-25T08:31:00;2.33;;;1.95;;
20230;SDS011;10274;49.022;9.338;2022-08-25T08:33:27;3.15;;;1.52;;
20230;SDS011;10274;49.022;9.338;2022-08-25T08:35:56;1.60;;;1.42;;
20230;SDS011;10274;49.022;9.338;2022-08-25T08:38:23;1.85;;;1.50;;
20230;SDS011;10274;49.022;9.338;2022-08-25T08:40:53;2.17;;;1.70;;
20230;SDS011;10274;49.022;9.338;2022-08-25T08:43:41;1.70;;;1.50;;
20230;SDS011;10274;49.022;9.338;2022-08-25T08:46:09;1.85;;;1.48;;
20230;SDS011;10274;49.022;9.338;2022-08-25T08:48:43;1.58;;;1.48;;
20230;SDS011;10274;49.022;9.338;2022-08-25T08:51:18;1.75;;;1.40;;
20230;SDS011;10274;49.022;9.338;2022-08-25T08:53:50;1.98;;;1.60;;
20230;SDS011;10274;49.022;9.338;2022-08-25T08:56:21;1.40;;;1.30;;
20230;SDS011;10274;49.022;9.338;2022-08-25T08:58:53;1.60;;;1.50;;
20230;SDS011;10274;49.022;9.338;2022-08-25T09:01:24;1.60;;;1.40;;
20230;SDS011;10274;49.022;9.338;2022-08-25T09:03:55;1.52;;;1.42;;
20230;SDS011;10274;49.022;9.338;2022-08-25T09:06:29;1.65;;;1.55;;
20230;SDS011;10274;49.022;9.338;2022-08-25T09:09:03;1.35;;;1.25;;
20230;SDS011;10274;49.022;9.338;2022-08-25T09:11:33;1.73;;;1.38;;
20230;SDS011;10274;49.022;9.338;2022-08-25T09:14:16;1.52;;;1.38;;
20230;SDS011;10274;49.022;9.338;2022-08-25T09:16:54;1.48;;;1.38;;
20230;SDS011;10274;49.022;9.338;2022-08-25T09:19:35;1.55;;;1.45;;
20230;SDS011;10274;49.022;9.338;2022-08-25T09:22:14;1.77;;;1.63;;
20230;SDS011;10274;49.022;9.338;2022-08-25T09:24:50;1.40;;;1.30;;
20230;SDS011;10274;49.022;9.338;2022-08-25T09:27:23;1.42;;;1.33;;
20230;SDS011;10274;49.022;9.338;2022-08-25T09:30:00;1.75;;;1.60;;
20230;SDS011;10274;49.022;9.338;2022-08-25T09:32:33;1.45;;;1.35;;
20230;SDS011;10274;49.022;9.338;2022-08-25T09:35:03;1.60;;;1.40;;
20230;SDS011;10274;49.022;9.338;2022-08-25T09:37:32;1.67;;;1.40;;
20230;SDS011;10274;49.022;9.338;2022-08-25T09:39:59;1.40;;;1.20;;
20230;SDS011;10274;49.022;9.338;2022-08-25T09:45:12;1.75;;;1.55;;
20230;SDS011;10274;49.022;9.338;2022-08-25T09:47:41;1.55;;;1.45;;
20230;SDS011;10274;49.022;9.338;2022-08-25T09:50:13;1.50;;;1.40;;
20230;SDS011;10274;49.022;9.338;2022-08-25T09:52:41;1.25;;;1.15;;
20230;SDS011;10274;49.022;9.338;2022-08-25T09:55:28;1.25;;;1.15;;
20230;SDS011;10274;49.022;9.338;2022-08-25T09:57:58;1.65;;;1.40;;
20230;SDS011;10274;49.022;9.338;2022-08-25T10:00:27;1.33;;;1.23;;
20230;SDS011;10274;49.022;9.338;2022-08-25T10:03:05;1.20;;;1.10;;
20230;SDS011;10274;49.022;9.338;2022-08-25T10:05:36;1.42;;;1.33;;
20230;SDS011;10274;49.022;9.338;2022-08-25T10:08:10;1.52;;;1.33;;
20230;SDS011;10274;49.022;9.338;2022-08-25T10:10:39;1.30;;;0.95;;
20230;SDS011;10274;49.022;9.338;2022-08-25T10:13:14;1.40;;;1.30;;
20230;SDS011;10274;49.022;9.338;2022-08-25T10:15:46;1.58;;;1.48;;
20230;SDS011;10274;49.022;9.338;2022-08-25T10:18:19;1.88;;;1.50;;
20230;SDS011;10274;49.022;9.338;2022-08-25T10:23:36;1.58;;;1.42;;
20230;SDS011;10274;49.022;9.338;2022-08-25T10:26:09;1.30;;;1.20;;
20230;SDS011;10274;49.022;9.338;2022-08-25T10:28:48;1.38;;;1.27;;
20230;SDS011;10274;49.022;9.338;2022-08-25T10:31:25;1.90;;;1.55;;
20230;SDS011;10274;49.022;9.338;2022-08-25T10:34:03;1.40;;;1.30;;
20230;SDS011;10274;49.022;9.338;2022-08-25T10:36:44;2.28;;;2.03;;
20230;SDS011;10274;49.022;9.338;2022-08-25T10:39:21;1.88;;;1.30;;
20230;SDS011;10274;49.022;9.338;2022-08-25T10:41:56;1.35;;;1.25;;
20230;SDS011;10274;49.022;9.338;2022-08-25T10:44:34;1.20;;;1.10;;
20230;SDS011;10274;49.022;9.338;2022-08-25T10:50:21;1.40;;;1.30;;
20230;SDS011;10274;49.022;9.338;2022-08-25T10:53:00;1.30;;;1.05;;
20230;SDS011;10274;49.022;9.338;2022-08-25T10:55:48;1.50;;;1.40;;
20230;SDS011;10274;49.022;9.338;2022-08-25T10:58:28;1.15;;;1.02;;
20230;SDS011;10274;49.022;9.338;2022-08-25T11:01:18;1.55;;;1.40;;
20230;SDS011;10274;49.022;9.338;2022-08-25T11:03:59;1.50;;;1.40;;
20230;SDS011;10274;49.022;9.338;2022-08-25T11:06:33;1.20;;;1.10;;
20230;SDS011;10274;49.022;9.338;2022-08-25T11:09:04;1.20;;;1.10;;
20230;SDS011;10274;49.022;9.338;2022-08-25T11:11:34;1.48;;;1.38;;
20230;SDS011;10274;49.022;9.338;2022-08-25T11:14:06;1.70;;;1.50;;
20230;SDS011;10274;49.022;9.338;2022-08-25T11:16:37;1.30;;;1.20;;
20230;SDS011;10274;49.022;9.338;2022-08-25T11:19:18;1.40;;;1.30;;
20230;SDS011;10274;49.022;9.338;2022-08-25T11:21:52;1.85;;;1.23;;
20230;SDS011;10274;49.022;9.338;2022-08-25T11:24:29;1.40;;;1.25;;
20230;SDS011;10274;49.022;9.338;2022-08-25T11:27:03;1.42;;;1.25;;
20230;SDS011;10274;49.022;9.338;2022-08-25T11:29:32;1.20;;;1.10;;
20230;SDS011;10274;49.022;9.338;2022-08-25T11:32:01;1.52;;;1.20;;
20230;SDS011;10274;49.022;9.338;2022-08-25T11:34:31;1.70;;;1.60;;
20230;SDS011;10274;49.022;9.338;2022-08-25T11:36:59;1.50;;;1.27;;
20230;SDS011;10274;49.022;9.338;2022-08-25T11:39:36;1.65;;;1.50;;
20230;SDS011;10274;49.022;9.338;2022-08-25T11:42:25;1.40;;;1.30;;
20230;SDS011;10274;49.022;9.338;2022-08-25T11:45:02;1.35;;;1.15;;
20230;SDS011;10274;49.022;9.338;2022-08-25T11:47:46;1.45;;;1.33;;
20230;SDS011;10274;49.022;9.338;2022-08-25T11:50:27;1.67;;;1.58;;
20230;SDS011;10274;49.022;9.338;2022-08-25T11:52:57;1.20;;;1.10;;
20230;SDS011;10274;49.022;9.338;2022-08-25T11:55:30;1.92;;;1.38;;
20230;SDS011;10274;49.022;9.338;2022-08-25T12:01:08;1.55;;;1.45;;
20230;SDS011;10274;49.022;9.338;2022-08-25T12:04:09;2.55;;;1.80;;
20230;SDS011;10274;49.022;9.338;2022-08-25T12:07:14;1.67;;;1.58;;
20230;SDS011;10274;49.022;9.338;2022-08-25T12:15:23;1.15;;;1.02;;
20230;SDS011;10274;49.022;9.338;2022-08-25T12:18:06;1.58;;;1.48;;
20230;SDS011;10274;49.022;9.338;2022-08-25T12:23:38;1.10;;;1.00;;
20230;SDS011;10274;49.022;9.338;2022-08-25T12:26:07;1.50;;;1.40;;
20230;SDS011;10274;49.022;9.338;2022-08-25T12:29:00;1.38;;;1.27;;
20230;SDS011;10274;49.022;9.338;2022-08-25T12:31:38;0.80;;;0.80;;
20230;SDS011;10274;49.022;9.338;2022-08-25T12:34:25;1.75;;;1.50;;
20230;SDS011;10274;49.022;9.338;2022-08-25T12:37:10;1.33;;;1.23;;
20230;SDS011;10274;49.022;9.338;2022-08-25T12:39:43;0.80;;;0.80;;
20230;SDS011;10274;49.022;9.338;2022-08-25T12:42:21;1.30;;;1.20;;
20230;SDS011;10274;49.022;9.338;2022-08-25T12:45:10;1.70;;;1.60;;
20230;SDS011;10274;49.022;9.338;2022-08-25T12:47:57;1.40;;;1.30;;
20230;SDS011;10274;49.022;9.338;2022-08-25T12:51:03;1.30;;;1.20;;
20230;SDS011;10274;49.022;9.338;2022-08-25T12:53:33;1.60;;;1.38;;
20230;SDS011;10274;49.022;9.338;2022-08-25T12:56:04;1.10;;;1.00;;
20230;SDS011;10274;49.022;9.338;2022-08-25T12:58:34;1.10;;;1.00;;
20230;SDS011;10274;49.022;9.338;2022-08-25T13:01:13;1.40;;;1.30;;
20230;SDS011;10274;49.022;9.338;2022-08-25T13:03:57;1.40;;;1.30;;
20230;SDS011;10274;49.022;9.338;2022-08-25T13:06:41;1.83;;;1.55;;
20230;SDS011;10274;49.022;9.338;2022-08-25T13:12:41;1.27;;;1.17;;
20230;SDS011;10274;49.022;9.338;2022-08-25T13:15:24;1.20;;;1.08;;
20230;SDS011;10274;49.022;9.338;2022-08-25T13:17:53;1.40;;;1.30;;
20230;SDS011;10274;49.022;9.338;2022-08-25T13:20:22;1.23;;;1.13;;
20230;SDS011;10274;49.022;9.338;2022-08-25T13:22:52;1.52;;;1.30;;
20230;SDS011;10274;49.022;9.338;2022-08-25T13:25:25;1.30;;;1.20;;
20230;SDS011;10274;49.022;9.338;2022-08-25T13:27:54;1.60;;;1.27;;
20230;SDS011;10274;49.022;9.338;2022-08-25T13:30:25;1.40;;;1.30;;
20230;SDS011;10274;49.022;9.338;2022-08-25T13:32:53;1.95;;;1.42;;
20230;SDS011;10274;49.022;9.338;2022-08-25T13:35:21;1.30;;;1.20;;
20230;SDS011;10274;49.022;9.338;2022-08-25T13:37:52;1.17;;;0.98;;
20230;SDS011;10274;49.022;9.338;2022-08-25T13:40:23;1.30;;;1.20;;
20230;SDS011;10274;49.022;9.338;2022-08-25T13:42:51;1.20;;;1.10;;
20230;SDS011;10274;49.022;9.338;2022-08-25T13:45:20;1.20;;;1.10;;
20230;SDS011;10274;49.022;9.338;2022-08-25T13:47:49;1.15;;;1.05;;
20230;SDS011;10274;49.022;9.338;2022-08-25T13:50:18;1.75;;;1.27;;
20230;SDS011;10274;49.022;9.338;2022-08-25T13:52:48;1.52;;;1.02;;
20230;SDS011;10274;49.022;9.338;2022-08-25T13:55:21;1.27;;;1.17;;
20230;SDS011;10274;49.022;9.338;2022-08-25T13:57:49;2.50;;;1.75;;
20230;SDS011;10274;49.022;9.338;2022-08-25T14:00:24;1.30;;;1.20;;
20230;SDS011;10274;49.022;9.338;2022-08-25T14:02:54;1.38;;;1.27;;
20230;SDS011;10274;49.022;9.338;2022-08-25T14:05:32;1.20;;;1.08;;
20230;SDS011;10274;49.022;9.338;2022-08-25T14:08:02;1.27;;;1.17;;
20230;SDS011;10274;49.022;9.338;2022-08-25T14:10:34;1.45;;;1.25;;
20230;SDS011;10274;49.022;9.338;2022-08-25T14:13:08;1.35;;;1.08;;
20230;SDS011;10274;49.022;9.338;2022-08-25T14:15:37;1.50;;;1.40;;
20230;SDS011;10274;49.022;9.338;2022-08-25T14:18:06;1.42;;;1.33;;
20230;SDS011;10274;49.022;9.338;2022-08-25T14:20:35;1.40;;;1.30;;
20230;SDS011;10274;49.022;9.338;2022-08-25T14:23:08;1.45;;;1.35;;
20230;SDS011;10274;49.022;9.338;2022-08-25T14:25:39;1.30;;;1.17;;
20230;SDS011;10274;49.022;9.338;2022-08-25T14:28:09;1.60;;;1.50;;
20230;SDS011;10274;49.022;9.338;2022-08-25T14:30:38;0.93;;;0.93;;
20230;SDS011;10274;49.022;9.338;2022-08-25T14:33:07;0.93;;;0.90;;
20230;SDS011;10274;49.022;9.338;2022-08-25T14:35:35;1.30;;;1.20;;
20230;SDS011;10274;49.022;9.338;2022-08-25T14:38:02;1.50;;;1.40;;
20230;SDS011;10274;49.022;9.338;2022-08-25T14:40:34;1.55;;;1.40;;
20230;SDS011;10274;49.022;9.338;2022-08-25T14:43:02;1.25;;;1.10;;
20230;SDS011;10274;49.022;9.338;2022-08-25T14:45:28;1.17;;;1.02;;
20230;SDS011;10274;49.022;9.338;2022-08-25T14:47:56;1.40;;;1.30;;
20230;SDS011;10274;49.022;9.338;2022-08-25T14:52:56;1.30;;;1.20;;
20230;SDS011;10274;49.022;9.338;2022-08-25T14:55:22;1.73;;;1.15;;
20230;SDS011;10274;49.022;9.338;2022-08-25T14:57:49;1.20;;;1.10;;
20230;SDS011;10274;49.022;9.338;2022-08-25T15:00:17;1.30;;;1.20;;
20230;SDS011;10274;49.022;9.338;2022-08-25T15:02:44;1.23;;;1.13;;
20230;SDS011;10274;49.022;9.338;2022-08-25T15:05:15;1.45;;;1.35;;
20230;SDS011;10274;49.022;9.338;2022-08-25T15:07:46;1.25;;;1.15;;
20230;SDS011;10274;49.022;9.338;2022-08-25T15:10:30;0.98;;;0.95;;
20230;SDS011;10274;49.022;9.338;2022-08-25T15:12:57;1.30;;;1.20;;
20230;SDS011;10274;49.022;9.338;2022-08-25T15:15:25;1.27;;;1.17;;
20230;SDS011;10274;49.022;9.338;2022-08-25T15:17:52;1.45;;;1.23;;
20230;SDS011;10274;49.022;9.338;2022-08-25T15:20:20;1.25;;;1.15;;
20230;SDS011;10274;49.022;9.338;2022-08-25T15:22:47;1.60;;;1.50;;
20230;SDS011;10274;49.022;9.338;2022-08-25T15:25:14;1.50;;;1.20;;
20230;SDS011;10274;49.022;9.338;2022-08-25T15:27:42;1.40;;;1.30;;
20230;SDS011;10274;49.022;9.338;2022-08-25T15:30:09;1.25;;;1.15;;
20230;SDS011;10274;49.022;9.338;2022-08-25T15:32:38;2.17;;;1.40;;
20230;SDS011;10274;49.022;9.338;2022-08-25T15:35:05;1.33;;;1.23;;